sensor_id;sensor_type;location;lat;lon;timestamp;P1;durP1;ratioP1;P2;durP2;ratioP2
3881;SDS011;1956;53.482;10.238;2022-11-25T00:02:42;72.80;;;22.77;;
3881;SDS011;1956;53.482;10.238;2022-11-25T00:07:43;66.60;;;22.27;;
3881;SDS011;1956;53.482;10.238;2022-11-25T00:12:43;243.00;;;32.00;;
3881;SDS011;1956;53.482;10.238;2022-11-25T00:17:44;135.30;;;26.73;;
3881;SDS011;1956;53.482;10.238;2022-11-25T00:22:44;89.27;;;22.77;;
3881;SDS011;1956;53.482;10.238;2022-11-25T00:27:44;68.17;;;23.67;;
3881;SDS011;1956;53.482;10.238;2022-11-25T00:32:45;112.40;;;24.43;;
3881;SDS011;1956;53.482;10.238;2022-11-25T00:37:45;70.37;;;23.00;;
3881;SDS011;1956;53.482;10.238;2022-11-25T00:42:46;64.60;;;23.43;;
3881;SDS011;1956;53.482;10.238;2022-11-25T00:48:04;91.13;;;24.33;;
3881;SDS011;1956;53.482;10.238;2022-11-25T00:53:05;117.00;;;25.13;;
3881;SDS011;1956;53.482;10.238;2022-11-25T00:58:05;75.57;;;25.53;;
3881;SDS011;1956;53.482;10.238;2022-11-25T01:03:05;78.53;;;23.00;;
3881;SDS011;1956;53.482;10.238;2022-11-25T01:08:06;64.47;;;21.63;;
3881;SDS011;1956;53.482;10.238;2022-11-25T01:13:06;134.53;;;25.70;;
3881;SDS011;1956;53.482;10.238;2022-11-25T01:18:06;179.33;;;30.67;;
3881;SDS011;1956;53.482;10.238;2022-11-25T01:23:07;56.90;;;23.27;;
3881;SDS011;1956;53.482;10.238;2022-11-25T01:28:07;78.57;;;22.77;;
3881;SDS011;1956;53.482;10.238;2022-11-25T01:33:07;79.17;;;23.47;;
3881;SDS011;1956;53.482;10.238;2022-11-25T01:38:08;65.07;;;24.43;;
3881;SDS011;1956;53.482;10.238;2022-11-25T01:43:12;606.53;;;53.20;;
3881;SDS011;1956;53.482;10.238;2022-11-25T01:48:15;81.37;;;24.27;;
3881;SDS011;1956;53.482;10.238;2022-11-25T01:53:18;92.23;;;25.40;;
3881;SDS011;1956;53.482;10.238;2022-11-25T01:58:20;197.10;;;29.97;;
3881;SDS011;1956;53.482;10.238;2022-11-25T02:03:24;60.60;;;21.83;;
3881;SDS011;1956;53.482;10.238;2022-11-25T02:08:28;81.63;;;24.50;;
3881;SDS011;1956;53.482;10.238;2022-11-25T02:13:28;71.83;;;25.40;;
3881;SDS011;1956;53.482;10.238;2022-11-25T02:18:29;83.47;;;25.70;;
3881;SDS011;1956;53.482;10.238;2022-11-25T02:23:33;89.40;;;25.97;;
3881;SDS011;1956;53.482;10.238;2022-11-25T02:29:03;74.83;;;25.63;;
3881;SDS011;1956;53.482;10.238;2022-11-25T02:34:03;94.97;;;27.30;;
3881;SDS011;1956;53.482;10.238;2022-11-25T02:39:04;66.37;;;23.07;;
3881;SDS011;1956;53.482;10.238;2022-11-25T02:44:04;144.17;;;29.23;;
3881;SDS011;1956;53.482;10.238;2022-11-25T02:49:05;75.87;;;24.60;;
3881;SDS011;1956;53.482;10.238;2022-11-25T02:54:05;127.40;;;27.60;;
3881;SDS011;1956;53.482;10.238;2022-11-25T02:59:06;69.17;;;24.43;;
3881;SDS011;1956;53.482;10.238;2022-11-25T03:04:07;86.17;;;27.70;;
3881;SDS011;1956;53.482;10.238;2022-11-25T03:09:07;108.37;;;27.90;;
3881;SDS011;1956;53.482;10.238;2022-11-25T03:14:07;82.20;;;26.33;;
3881;SDS011;1956;53.482;10.238;2022-11-25T03:19:08;82.10;;;23.60;;
3881;SDS011;1956;53.482;10.238;2022-11-25T03:24:08;201.97;;;30.93;;
3881;SDS011;1956;53.482;10.238;2022-11-25T03:29:08;91.70;;;26.73;;
3881;SDS011;1956;53.482;10.238;2022-11-25T03:34:09;71.63;;;22.00;;
3881;SDS011;1956;53.482;10.238;2022-11-25T03:39:09;86.53;;;25.33;;
3881;SDS011;1956;53.482;10.238;2022-11-25T03:44:10;106.90;;;25.83;;
3881;SDS011;1956;53.482;10.238;2022-11-25T03:49:10;109.43;;;24.70;;
3881;SDS011;1956;53.482;10.238;2022-11-25T03:54:10;75.27;;;23.63;;
3881;SDS011;1956;53.482;10.238;2022-11-25T03:59:11;125.23;;;27.10;;
3881;SDS011;1956;53.482;10.238;2022-11-25T04:04:11;65.07;;;21.43;;
3881;SDS011;1956;53.482;10.238;2022-11-25T04:09:11;59.23;;;21.00;;
3881;SDS011;1956;53.482;10.238;2022-11-25T04:14:12;61.57;;;20.87;;
3881;SDS011;1956;53.482;10.238;2022-11-25T04:19:13;52.10;;;20.27;;
3881;SDS011;1956;53.482;10.238;2022-11-25T04:24:13;63.43;;;20.00;;
3881;SDS011;1956;53.482;10.238;2022-11-25T04:29:13;77.43;;;22.77;;
3881;SDS011;1956;53.482;10.238;2022-11-25T04:34:14;54.20;;;18.73;;
3881;SDS011;1956;53.482;10.238;2022-11-25T04:39:14;58.63;;;20.90;;
3881;SDS011;1956;53.482;10.238;2022-11-25T04:44:14;66.20;;;20.33;;
3881;SDS011;1956;53.482;10.238;2022-11-25T04:49:15;77.37;;;25.33;;
3881;SDS011;1956;53.482;10.238;2022-11-25T04:54:15;59.70;;;21.57;;
3881;SDS011;1956;53.482;10.238;2022-11-25T04:59:16;118.87;;;22.57;;
3881;SDS011;1956;53.482;10.238;2022-11-25T05:04:35;57.20;;;20.47;;
3881;SDS011;1956;53.482;10.238;2022-11-25T05:09:35;67.50;;;21.97;;
3881;SDS011;1956;53.482;10.238;2022-11-25T05:14:36;51.13;;;21.33;;
3881;SDS011;1956;53.482;10.238;2022-11-25T05:19:36;56.27;;;22.07;;
3881;SDS011;1956;53.482;10.238;2022-11-25T05:24:37;75.43;;;23.40;;
3881;SDS011;1956;53.482;10.238;2022-11-25T05:29:38;72.97;;;22.20;;
3881;SDS011;1956;53.482;10.238;2022-11-25T05:34:38;83.00;;;22.47;;
3881;SDS011;1956;53.482;10.238;2022-11-25T05:39:39;49.37;;;19.20;;
3881;SDS011;1956;53.482;10.238;2022-11-25T05:44:39;50.27;;;17.90;;
3881;SDS011;1956;53.482;10.238;2022-11-25T05:49:40;57.50;;;19.67;;
3881;SDS011;1956;53.482;10.238;2022-11-25T05:54:40;63.20;;;19.80;;
3881;SDS011;1956;53.482;10.238;2022-11-25T05:59:40;67.87;;;18.40;;
3881;SDS011;1956;53.482;10.238;2022-11-25T06:04:41;43.20;;;15.20;;
3881;SDS011;1956;53.482;10.238;2022-11-25T06:09:41;53.20;;;16.67;;
3881;SDS011;1956;53.482;10.238;2022-11-25T06:14:41;47.30;;;15.00;;
3881;SDS011;1956;53.482;10.238;2022-11-25T06:19:42;38.17;;;15.10;;
3881;SDS011;1956;53.482;10.238;2022-11-25T06:24:42;36.23;;;13.87;;
3881;SDS011;1956;53.482;10.238;2022-11-25T06:29:42;33.35;;;13.82;;
3881;SDS011;1956;53.482;10.238;2022-11-25T06:34:43;34.07;;;12.73;;
3881;SDS011;1956;53.482;10.238;2022-11-25T06:39:43;27.40;;;12.70;;
3881;SDS011;1956;53.482;10.238;2022-11-25T06:44:43;45.10;;;12.67;;
3881;SDS011;1956;53.482;10.238;2022-11-25T06:49:44;39.37;;;11.20;;
3881;SDS011;1956;53.482;10.238;2022-11-25T06:54:44;42.40;;;11.93;;
3881;SDS011;1956;53.482;10.238;2022-11-25T06:59:44;36.33;;;12.83;;
3881;SDS011;1956;53.482;10.238;2022-11-25T07:04:45;51.07;;;12.47;;
3881;SDS011;1956;53.482;10.238;2022-11-25T07:09:45;48.63;;;13.57;;
3881;SDS011;1956;53.482;10.238;2022-11-25T07:14:48;63.53;;;14.50;;
3881;SDS011;1956;53.482;10.238;2022-11-25T07:19:50;38.07;;;11.90;;
3881;SDS011;1956;53.482;10.238;2022-11-25T07:24:50;33.53;;;11.83;;
3881;SDS011;1956;53.482;10.238;2022-11-25T07:29:51;36.83;;;11.53;;
3881;SDS011;1956;53.482;10.238;2022-11-25T07:34:51;38.47;;;12.23;;
3881;SDS011;1956;53.482;10.238;2022-11-25T07:39:51;44.00;;;12.17;;
3881;SDS011;1956;53.482;10.238;2022-11-25T07:44:52;56.10;;;12.87;;
3881;SDS011;1956;53.482;10.238;2022-11-25T07:49:52;42.80;;;12.53;;
3881;SDS011;1956;53.482;10.238;2022-11-25T07:54:53;37.27;;;12.40;;
3881;SDS011;1956;53.482;10.238;2022-11-25T07:59:53;33.53;;;12.10;;
3881;SDS011;1956;53.482;10.238;2022-11-25T08:04:53;29.00;;;12.03;;
3881;SDS011;1956;53.482;10.238;2022-11-25T08:09:54;31.83;;;13.27;;
3881;SDS011;1956;53.482;10.238;2022-11-25T08:14:54;28.60;;;11.00;;
3881;SDS011;1956;53.482;10.238;2022-11-25T08:19:55;51.73;;;13.07;;
3881;SDS011;1956;53.482;10.238;2022-11-25T08:24:55;27.37;;;12.17;;
3881;SDS011;1956;53.482;10.238;2022-11-25T08:29:56;42.77;;;12.30;;
3881;SDS011;1956;53.482;10.238;2022-11-25T08:34:56;42.88;;;10.68;;
3881;SDS011;1956;53.482;10.238;2022-11-25T08:39:56;32.90;;;12.87;;
3881;SDS011;1956;53.482;10.238;2022-11-25T08:44:57;30.73;;;11.73;;
3881;SDS011;1956;53.482;10.238;2022-11-25T08:49:57;34.50;;;11.90;;
3881;SDS011;1956;53.482;10.238;2022-11-25T08:54:58;28.73;;;11.83;;
3881;SDS011;1956;53.482;10.238;2022-11-25T08:59:58;33.50;;;11.77;;
3881;SDS011;1956;53.482;10.238;2022-11-25T09:04:59;28.53;;;10.93;;
3881;SDS011;1956;53.482;10.238;2022-11-25T09:09:59;29.00;;;10.43;;
3881;SDS011;1956;53.482;10.238;2022-11-25T09:15:00;23.37;;;10.53;;
3881;SDS011;1956;53.482;10.238;2022-11-25T09:20:00;35.00;;;9.73;;
3881;SDS011;1956;53.482;10.238;2022-11-25T09:25:00;28.03;;;8.90;;
3881;SDS011;1956;53.482;10.238;2022-11-25T09:30:01;30.30;;;9.67;;
3881;SDS011;1956;53.482;10.238;2022-11-25T09:35:01;33.70;;;10.50;;
3881;SDS011;1956;53.482;10.238;2022-11-25T09:40:02;40.87;;;9.70;;
3881;SDS011;1956;53.482;10.238;2022-11-25T09:45:20;22.97;;;8.97;;
3881;SDS011;1956;53.482;10.238;2022-11-25T09:56:39;27.10;;;10.57;;
3881;SDS011;1956;53.482;10.238;2022-11-25T10:01:46;26.60;;;11.40;;
3881;SDS011;1956;53.482;10.238;2022-11-25T10:06:50;34.33;;;11.57;;
3881;SDS011;1956;53.482;10.238;2022-11-25T10:11:54;28.63;;;10.23;;
3881;SDS011;1956;53.482;10.238;2022-11-25T10:17:10;28.90;;;10.10;;
3881;SDS011;1956;53.482;10.238;2022-11-25T10:22:35;31.87;;;11.33;;
3881;SDS011;1956;53.482;10.238;2022-11-25T10:33:24;28.60;;;11.10;;
3881;SDS011;1956;53.482;10.238;2022-11-25T10:44:23;32.00;;;12.00;;
3881;SDS011;1956;53.482;10.238;2022-11-25T10:49:27;30.10;;;11.93;;
3881;SDS011;1956;53.482;10.238;2022-11-25T10:54:30;27.17;;;11.80;;
3881;SDS011;1956;53.482;10.238;2022-11-25T11:04:34;28.87;;;10.23;;
3881;SDS011;1956;53.482;10.238;2022-11-25T11:09:36;34.20;;;11.70;;
3881;SDS011;1956;53.482;10.238;2022-11-25T11:14:37;28.13;;;12.27;;
3881;SDS011;1956;53.482;10.238;2022-11-25T11:19:38;36.63;;;11.23;;
3881;SDS011;1956;53.482;10.238;2022-11-25T11:24:38;32.57;;;11.73;;
3881;SDS011;1956;53.482;10.238;2022-11-25T11:29:40;31.23;;;11.30;;
3881;SDS011;1956;53.482;10.238;2022-11-25T11:34:45;24.07;;;11.47;;
3881;SDS011;1956;53.482;10.238;2022-11-25T11:45:44;28.40;;;13.17;;
3881;SDS011;1956;53.482;10.238;2022-11-25T11:51:26;23.73;;;10.67;;
3881;SDS011;1956;53.482;10.238;2022-11-25T11:56:58;22.00;;;11.50;;
3881;SDS011;1956;53.482;10.238;2022-11-25T12:02:05;23.57;;;10.73;;
3881;SDS011;1956;53.482;10.238;2022-11-25T12:08:07;39.60;;;12.93;;
3881;SDS011;1956;53.482;10.238;2022-11-25T12:13:10;28.60;;;11.93;;
3881;SDS011;1956;53.482;10.238;2022-11-25T12:18:39;32.23;;;10.90;;
3881;SDS011;1956;53.482;10.238;2022-11-25T12:35:32;47.90;;;11.90;;
3881;SDS011;1956;53.482;10.238;2022-11-25T12:40:21;40.93;;;12.43;;
3881;SDS011;1956;53.482;10.238;2022-11-25T12:45:26;24.47;;;11.00;;
3881;SDS011;1956;53.482;10.238;2022-11-25T12:56:25;26.20;;;11.23;;
3881;SDS011;1956;53.482;10.238;2022-11-25T13:01:32;41.53;;;12.07;;
3881;SDS011;1956;53.482;10.238;2022-11-25T13:12:30;33.53;;;12.83;;
3881;SDS011;1956;53.482;10.238;2022-11-25T13:17:55;37.23;;;11.67;;
3881;SDS011;1956;53.482;10.238;2022-11-25T13:23:12;37.67;;;11.73;;
3881;SDS011;1956;53.482;10.238;2022-11-25T13:28:30;51.93;;;11.47;;
3881;SDS011;1956;53.482;10.238;2022-11-25T13:44:18;45.00;;;14.27;;
3881;SDS011;1956;53.482;10.238;2022-11-25T13:49:55;42.90;;;13.50;;
3881;SDS011;1956;53.482;10.238;2022-11-25T13:54:52;53.53;;;14.13;;
3881;SDS011;1956;53.482;10.238;2022-11-25T13:59:55;30.50;;;14.00;;
3881;SDS011;1956;53.482;10.238;2022-11-25T14:16:19;42.93;;;13.80;;
3881;SDS011;1956;53.482;10.238;2022-11-25T14:21:51;25.60;;;12.80;;
3881;SDS011;1956;53.482;10.238;2022-11-25T14:27:13;57.03;;;13.10;;
3881;SDS011;1956;53.482;10.238;2022-11-25T14:32:29;43.93;;;13.63;;
3881;SDS011;1956;53.482;10.238;2022-11-25T14:38:18;47.93;;;14.20;;
3881;SDS011;1956;53.482;10.238;2022-11-25T14:43:16;37.83;;;16.00;;
3881;SDS011;1956;53.482;10.238;2022-11-25T14:48:20;54.73;;;18.27;;
3881;SDS011;1956;53.482;10.238;2022-11-25T14:53:24;37.37;;;15.13;;
3881;SDS011;1956;53.482;10.238;2022-11-25T14:58:26;44.33;;;17.87;;
3881;SDS011;1956;53.482;10.238;2022-11-25T15:03:26;43.97;;;14.83;;
3881;SDS011;1956;53.482;10.238;2022-11-25T15:08:27;32.00;;;13.23;;
3881;SDS011;1956;53.482;10.238;2022-11-25T15:13:31;41.73;;;13.03;;
3881;SDS011;1956;53.482;10.238;2022-11-25T15:18:33;63.07;;;13.60;;
3881;SDS011;1956;53.482;10.238;2022-11-25T15:23:35;41.83;;;13.13;;
3881;SDS011;1956;53.482;10.238;2022-11-25T15:28:36;69.83;;;14.03;;
3881;SDS011;1956;53.482;10.238;2022-11-25T15:33:37;59.10;;;14.90;;
3881;SDS011;1956;53.482;10.238;2022-11-25T15:38:42;38.03;;;13.40;;
3881;SDS011;1956;53.482;10.238;2022-11-25T15:43:44;81.77;;;15.77;;
3881;SDS011;1956;53.482;10.238;2022-11-25T15:48:47;48.70;;;15.03;;
3881;SDS011;1956;53.482;10.238;2022-11-25T15:53:54;79.40;;;15.87;;
3881;SDS011;1956;53.482;10.238;2022-11-25T15:58:59;42.33;;;14.00;;
3881;SDS011;1956;53.482;10.238;2022-11-25T16:04:10;72.07;;;17.03;;
3881;SDS011;1956;53.482;10.238;2022-11-25T16:09:18;39.20;;;14.30;;
3881;SDS011;1956;53.482;10.238;2022-11-25T16:14:27;53.30;;;15.70;;
3881;SDS011;1956;53.482;10.238;2022-11-25T16:19:31;63.97;;;19.37;;
3881;SDS011;1956;53.482;10.238;2022-11-25T16:24:34;71.07;;;20.17;;
3881;SDS011;1956;53.482;10.238;2022-11-25T16:29:46;83.57;;;20.97;;
3881;SDS011;1956;53.482;10.238;2022-11-25T16:34:48;46.13;;;16.70;;
3881;SDS011;1956;53.482;10.238;2022-11-25T16:39:49;46.47;;;16.87;;
3881;SDS011;1956;53.482;10.238;2022-11-25T16:44:50;49.17;;;16.43;;
3881;SDS011;1956;53.482;10.238;2022-11-25T16:49:50;46.90;;;17.57;;
3881;SDS011;1956;53.482;10.238;2022-11-25T16:54:51;58.37;;;19.10;;
3881;SDS011;1956;53.482;10.238;2022-11-25T16:59:51;48.87;;;18.77;;
3881;SDS011;1956;53.482;10.238;2022-11-25T17:04:56;60.53;;;18.70;;
3881;SDS011;1956;53.482;10.238;2022-11-25T17:09:58;83.00;;;19.10;;
3881;SDS011;1956;53.482;10.238;2022-11-25T17:14:58;72.80;;;21.30;;
3881;SDS011;1956;53.482;10.238;2022-11-25T17:19:59;89.77;;;23.20;;
3881;SDS011;1956;53.482;10.238;2022-11-25T17:25:00;67.17;;;19.93;;
3881;SDS011;1956;53.482;10.238;2022-11-25T17:30:01;64.40;;;21.20;;
3881;SDS011;1956;53.482;10.238;2022-11-25T17:35:05;99.47;;;22.70;;
3881;SDS011;1956;53.482;10.238;2022-11-25T17:40:16;73.17;;;23.90;;
3881;SDS011;1956;53.482;10.238;2022-11-25T17:45:18;56.90;;;21.10;;
3881;SDS011;1956;53.482;10.238;2022-11-25T17:50:21;69.20;;;22.27;;
3881;SDS011;1956;53.482;10.238;2022-11-25T17:55:24;94.33;;;23.23;;
3881;SDS011;1956;53.482;10.238;2022-11-25T18:00:26;75.23;;;22.93;;
3881;SDS011;1956;53.482;10.238;2022-11-25T18:05:26;80.70;;;23.77;;
3881;SDS011;1956;53.482;10.238;2022-11-25T18:10:27;127.10;;;27.77;;
3881;SDS011;1956;53.482;10.238;2022-11-25T18:15:28;88.33;;;23.77;;
3881;SDS011;1956;53.482;10.238;2022-11-25T18:20:29;130.60;;;29.80;;
3881;SDS011;1956;53.482;10.238;2022-11-25T18:25:31;95.20;;;26.77;;
3881;SDS011;1956;53.482;10.238;2022-11-25T18:30:33;111.20;;;30.47;;
3881;SDS011;1956;53.482;10.238;2022-11-25T18:35:35;100.67;;;32.23;;
3881;SDS011;1956;53.482;10.238;2022-11-25T18:40:35;166.20;;;39.97;;
3881;SDS011;1956;53.482;10.238;2022-11-25T18:45:39;110.10;;;29.97;;
3881;SDS011;1956;53.482;10.238;2022-11-25T18:50:39;196.73;;;35.77;;
3881;SDS011;1956;53.482;10.238;2022-11-25T18:55:40;128.30;;;29.77;;
3881;SDS011;1956;53.482;10.238;2022-11-25T19:00:41;106.43;;;33.87;;
3881;SDS011;1956;53.482;10.238;2022-11-25T19:05:41;117.87;;;32.30;;
3881;SDS011;1956;53.482;10.238;2022-11-25T19:10:42;134.23;;;32.43;;
3881;SDS011;1956;53.482;10.238;2022-11-25T19:15:43;149.27;;;32.87;;
3881;SDS011;1956;53.482;10.238;2022-11-25T19:20:44;102.40;;;32.33;;
3881;SDS011;1956;53.482;10.238;2022-11-25T19:25:44;142.07;;;35.00;;
3881;SDS011;1956;53.482;10.238;2022-11-25T19:30:45;140.40;;;33.83;;
3881;SDS011;1956;53.482;10.238;2022-11-25T19:35:46;212.73;;;38.97;;
3881;SDS011;1956;53.482;10.238;2022-11-25T19:40:47;164.73;;;36.17;;
3881;SDS011;1956;53.482;10.238;2022-11-25T19:45:48;126.17;;;34.03;;
3881;SDS011;1956;53.482;10.238;2022-11-25T19:50:49;136.10;;;34.23;;
3881;SDS011;1956;53.482;10.238;2022-11-25T19:55:58;240.90;;;39.33;;
3881;SDS011;1956;53.482;10.238;2022-11-25T20:01:02;134.57;;;35.37;;
3881;SDS011;1956;53.482;10.238;2022-11-25T20:06:05;235.77;;;49.30;;
3881;SDS011;1956;53.482;10.238;2022-11-25T20:11:07;347.07;;;54.17;;
3881;SDS011;1956;53.482;10.238;2022-11-25T20:16:11;142.30;;;37.90;;
3881;SDS011;1956;53.482;10.238;2022-11-25T20:21:16;219.13;;;41.27;;
3881;SDS011;1956;53.482;10.238;2022-11-25T20:26:28;205.47;;;39.00;;
3881;SDS011;1956;53.482;10.238;2022-11-25T20:31:30;222.13;;;38.37;;
3881;SDS011;1956;53.482;10.238;2022-11-25T20:36:30;120.30;;;35.97;;
3881;SDS011;1956;53.482;10.238;2022-11-25T20:41:31;159.47;;;39.73;;
3881;SDS011;1956;53.482;10.238;2022-11-25T20:46:32;372.40;;;50.10;;
3881;SDS011;1956;53.482;10.238;2022-11-25T20:51:32;101.87;;;34.10;;
3881;SDS011;1956;53.482;10.238;2022-11-25T20:56:33;141.33;;;37.10;;
3881;SDS011;1956;53.482;10.238;2022-11-25T21:01:33;171.10;;;37.00;;
3881;SDS011;1956;53.482;10.238;2022-11-25T21:06:33;197.27;;;39.77;;
3881;SDS011;1956;53.482;10.238;2022-11-25T21:11:34;92.10;;;34.63;;
3881;SDS011;1956;53.482;10.238;2022-11-25T21:16:34;170.83;;;37.60;;
3881;SDS011;1956;53.482;10.238;2022-11-25T21:21:35;89.63;;;33.60;;
3881;SDS011;1956;53.482;10.238;2022-11-25T21:26:37;99.67;;;36.10;;
3881;SDS011;1956;53.482;10.238;2022-11-25T21:31:37;142.13;;;36.70;;
3881;SDS011;1956;53.482;10.238;2022-11-25T21:36:38;104.47;;;32.93;;
3881;SDS011;1956;53.482;10.238;2022-11-25T21:41:39;112.43;;;32.40;;
3881;SDS011;1956;53.482;10.238;2022-11-25T21:46:39;237.20;;;39.80;;
3881;SDS011;1956;53.482;10.238;2022-11-25T21:51:40;117.03;;;33.03;;
3881;SDS011;1956;53.482;10.238;2022-11-25T21:56:40;92.00;;;30.97;;
3881;SDS011;1956;53.482;10.238;2022-11-25T22:01:40;80.20;;;28.63;;
3881;SDS011;1956;53.482;10.238;2022-11-25T22:06:41;88.50;;;28.37;;
3881;SDS011;1956;53.482;10.238;2022-11-25T22:11:43;73.73;;;27.03;;
3881;SDS011;1956;53.482;10.238;2022-11-25T22:16:45;98.83;;;26.70;;
3881;SDS011;1956;53.482;10.238;2022-11-25T22:21:45;85.80;;;26.37;;
3881;SDS011;1956;53.482;10.238;2022-11-25T22:26:46;93.97;;;25.13;;
3881;SDS011;1956;53.482;10.238;2022-11-25T22:31:48;78.53;;;23.80;;
3881;SDS011;1956;53.482;10.238;2022-11-25T22:36:49;65.50;;;22.57;;
3881;SDS011;1956;53.482;10.238;2022-11-25T22:41:50;80.17;;;22.07;;
3881;SDS011;1956;53.482;10.238;2022-11-25T22:46:52;91.00;;;23.77;;
3881;SDS011;1956;53.482;10.238;2022-11-25T22:51:53;84.80;;;21.67;;
3881;SDS011;1956;53.482;10.238;2022-11-25T22:56:54;83.37;;;20.00;;
3881;SDS011;1956;53.482;10.238;2022-11-25T23:01:55;247.50;;;26.80;;
3881;SDS011;1956;53.482;10.238;2022-11-25T23:06:56;74.23;;;19.43;;
3881;SDS011;1956;53.482;10.238;2022-11-25T23:11:56;50.70;;;17.07;;
3881;SDS011;1956;53.482;10.238;2022-11-25T23:16:56;64.30;;;18.90;;
3881;SDS011;1956;53.482;10.238;2022-11-25T23:21:57;60.23;;;16.17;;
3881;SDS011;1956;53.482;10.238;2022-11-25T23:26:57;64.97;;;17.00;;
3881;SDS011;1956;53.482;10.238;2022-11-25T23:31:58;125.73;;;20.40;;
3881;SDS011;1956;53.482;10.238;2022-11-25T23:37:00;51.47;;;14.90;;
3881;SDS011;1956;53.482;10.238;2022-11-25T23:42:00;51.83;;;14.60;;
3881;SDS011;1956;53.482;10.238;2022-11-25T23:47:02;75.70;;;15.30;;
3881;SDS011;1956;53.482;10.238;2022-11-25T23:52:03;48.13;;;12.40;;
3881;SDS011;1956;53.482;10.238;2022-11-25T23:57:11;92.37;;;16.30;;
